Strona główna
METAR-TAF:

METAR-TAF

Lotnisko :

Kunming, Chiny

Szerokość geograficzna: 25-01N, Długość geograficzna: 102-41E, wysokość: 1892 m

Aktualna obserwacja pogody

Raport powstał 1 godzina i 0 minut temu, godzina 03:00 UTC
Wiatr 14 kt od południowy zachód
Temperatura 17°C
Wilgotność 77%
Ciśnienie 1023 hPa
Widzialność 10 km lub więcej
Rozproszone chmury na wysokości 2000 ft
Przerywane chmury na wysokości 3600 ft

METAR: ZPPP 120300Z 22007MPS 9999 SCT020 BKN036 17/13 Q1023 NOSIG

czas: 12:00 (04:00 UTC)

Prognoza

Raport powstał 8 godziny i 48 minut temu, godzina 19:12 UTC
Prognoza ważna od 12 godzina 00 UTC do 12 godzina 24 UTC
Wiatr 12 kt od południowy zachód
Widzialność 10 km lub więcej
Rozproszone chmury na wysokości 2300 ft
Przerywane chmury na wysokości 3600 ft

TAF: ZPPP 111912Z 1200/1224 22006MPS 9999 SCT023 BKN036 TX20/1208Z TN11/1223Z

Obserwacja i prognoza pogody dla ponad 4000 lotnisk (raport METAR i TAF).

Dostępne stacje oznaczono żółtymi i czerwonymi punktami na mapie.

Najedź kursorem aby zobaczyć nazwę stacji.

Kliknij aby zobaczyć obserwacje i prognozy pogody.

Aby zmienić mapę: kliknij na zielony przycisk z czarnym krzyżykiem, aby powiększyć; na zielony przycisk z myślnikiem, aby pomniejszyć; na zielone strzałki, aby przejść do map sąsiednich.


METAR-TAF: